Time;durP1;ratioP1;P1;durP2;ratioP2;P2;SDS_P1;SDS_P2;PMS_P1;PMS_P2;Temp;Humidity;BMP_temperature;BMP_pressure;BME280_temperature;BME280_humidity;BME280_pressure;Samples;Min_cycle;Max_cycle;Signal;HPM_P1;HPM_P2
2022/06/24 00:00:36;;;;;;;;;5.00;3.67;;;;;24.71;100.00;100318.81;4955897;28;45539;-81
2022/06/24 00:03:02;;;;;;;;;4.00;4.00;;;;;24.75;100.00;100331.91;4954755;28;45523;-81
2022/06/24 00:05:29;;;;;;;;;8.00;6.00;;;;;24.77;100.00;100332.41;4954546;28;45390;-82
2022/06/24 00:07:55;;;;;;;;;7.33;5.33;;;;;24.74;100.00;100315.38;4955083;28;45660;-80
2022/06/24 00:10:23;;;;;;;;;4.00;4.00;;;;;24.58;100.00;100309.25;4960879;28;45462;-80
2022/06/24 00:12:51;;;;;;;;;6.33;6.33;;;;;24.40;100.00;100311.03;4956062;28;45589;-79
2022/06/24 00:15:42;;;;;;;;;4.67;4.67;;;;;24.21;100.00;100328.00;4957663;28;46486;-82
2022/06/24 00:18:16;;;;;;;;;3.67;3.67;;;;;24.04;100.00;100342.59;4966717;28;45575;-81
2022/06/24 00:20:50;;;;;;;;;6.50;5.50;;;;;23.88;100.00;100342.06;4947820;28;45299;-81
2022/06/24 00:23:20;;;;;;;;;5.00;4.00;;;;;23.79;100.00;100331.53;4940372;28;46248;-80
2022/06/24 00:25:46;;;;;;;;;7.00;6.00;;;;;23.74;100.00;100323.25;4950385;28;45832;-80
2022/06/24 00:28:13;;;;;;;;;6.67;4.33;;;;;23.71;100.00;100323.00;4956956;28;45914;-80
2022/06/24 00:30:38;;;;;;;;;5.00;5.00;;;;;23.68;100.00;100324.44;4947438;28;45768;-82
2022/06/24 00:33:11;;;;;;;;;7.00;6.33;;;;;23.63;100.00;100322.56;4965217;28;45588;-81
2022/06/24 00:36:00;;;;;;;;;7.33;4.00;;;;;23.60;100.00;100331.59;4958594;28;48555;-79
2022/06/24 00:38:38;;;;;;;;;3.00;3.00;;;;;23.57;100.00;100323.78;4967093;28;45765;-81
2022/06/24 00:41:10;;;;;;;;;6.00;6.00;;;;;23.55;100.00;100319.66;4958574;28;45518;-80
2022/06/24 00:43:45;;;;;;;;;7.33;6.00;;;;;23.54;100.00;100318.00;4963291;28;45812;-80
2022/06/24 00:46:13;;;;;;;;;8.00;8.00;;;;;23.52;100.00;100328.66;4946429;28;46211;-74
2022/06/24 00:48:43;;;;;;;;;10.33;7.00;;;;;23.54;100.00;100337.59;4951714;28;45580;-72
2022/06/24 00:51:08;;;;;;;;;6.67;5.67;;;;;23.53;100.00;100350.72;4950335;28;45445;-73
2022/06/24 00:54:06;;;;;;;;;6.67;6.67;;;;;23.51;100.00;100355.81;4956368;28;45422;-72
2022/06/24 00:56:32;;;;;;;;;6.00;6.00;;;;;23.38;100.00;100329.47;4955093;28;46187;-73
2022/06/24 00:59:00;;;;;;;;;5.00;5.00;;;;;23.48;100.00;100331.25;4940454;28;45938;-72
2022/06/24 01:01:37;;;;;;;;;6.67;5.67;;;;;23.43;100.00;100329.38;4956378;28;45842;-73
2022/06/24 01:04:07;;;;;;;;;4.33;4.33;;;;;23.43;100.00;100329.38;4945263;28;45828;-73
2022/06/24 01:06:35;;;;;;;;;6.33;4.00;;;;;23.45;100.00;100332.69;4966187;28;48075;-73
2022/06/24 01:09:00;;;;;;;;;5.33;5.33;;;;;23.44;100.00;100330.19;4954207;28;45512;-81
2022/06/24 01:11:33;;;;;;;;;6.00;5.00;;;;;23.43;100.00;100326.56;4957372;28;45399;-81
2022/06/24 01:14:17;;;;;;;;;5.00;4.33;;;;;23.43;100.00;100334.97;4948609;28;46793;-74
2022/06/24 01:16:43;;;;;;;;;6.00;6.00;;;;;23.32;100.00;100319.47;4935002;28;47442;-73
2022/06/24 01:19:11;;;;;;;;;4.00;4.00;;;;;23.41;100.00;100337.25;4951196;28;45519;-72
2022/06/24 01:21:50;;;;;;;;;4.67;4.33;;;;;23.41;100.00;100336.41;4957608;28;45507;-74
2022/06/24 01:24:21;;;;;;;;;8.67;6.33;;;;;23.34;100.00;100321.94;4961008;28;45799;-73
2022/06/24 01:26:57;;;;;;;;;8.33;7.00;;;;;23.37;100.00;100325.00;4935857;28;45687;-74
2022/06/24 01:29:24;;;;;;;;;6.00;6.00;;;;;23.33;100.00;100306.31;4959520;28;45724;-74
2022/06/24 01:31:53;;;;;;;;;6.00;6.00;;;;;23.35;100.00;100309.63;4953019;28;46347;-74
2022/06/24 01:34:20;;;;;;;;;5.00;5.00;;;;;23.35;100.00;100309.63;4929403;28;46873;-74
2022/06/24 01:36:46;;;;;;;;;5.67;5.67;;;;;23.23;100.00;100298.91;4951725;28;45485;-73
2022/06/24 01:39:11;;;;;;;;;4.33;4.33;;;;;23.35;100.00;100307.66;4954142;28;45753;-74
2022/06/24 01:41:37;;;;;;;;;3.67;3.67;;;;;23.34;100.00;100316.34;4954293;28;45711;-72
2022/06/24 01:44:04;;;;;;;;;4.33;4.00;;;;;23.28;100.00;100307.25;4971760;28;45512;-74
2022/06/24 01:46:29;;;;;;;;;7.33;6.33;;;;;23.30;100.00;100318.94;4957852;28;45924;-73
2022/06/24 01:48:55;;;;;;;;;4.00;4.00;;;;;23.28;100.00;100318.44;4972096;28;45886;-72
2022/06/24 01:51:22;;;;;;;;;4.33;4.33;;;;;23.25;100.00;100347.03;4926803;28;45557;-74
2022/06/24 01:53:48;;;;;;;;;4.67;4.67;;;;;23.24;100.00;100367.75;4955152;28;45793;-73
2022/06/24 01:56:14;;;;;;;;;8.67;6.00;;;;;23.21;100.00;100387.94;4956824;28;45571;-81
2022/06/24 01:58:39;;;;;;;;;9.33;7.67;;;;;23.07;100.00;100383.06;4955728;28;45835;-81
2022/06/24 02:01:04;;;;;;;;;6.67;6.33;;;;;23.05;100.00;100402.13;4963458;28;45897;-79
2022/06/24 02:03:32;;;;;;;;;4.67;4.33;;;;;22.97;100.00;100393.56;4944763;28;46910;-79
2022/06/24 02:06:03;;;;;;;;;5.00;4.00;;;;;22.89;100.00;100397.88;4950234;28;46533;-79
2022/06/24 02:08:30;;;;;;;;;6.00;6.00;;;;;22.83;100.00;100385.06;4944744;28;45497;-79
2022/06/24 02:13:41;;;;;;;;;5.67;4.33;;;;;22.61;100.00;100369.69;4943934;28;45852;-80
2022/06/24 02:16:07;;;;;;;;;5.00;5.00;;;;;22.51;100.00;100365.06;4943053;28;46900;-79
2022/06/24 02:18:33;;;;;;;;;4.67;4.67;;;;;22.46;100.00;100375.50;4938452;28;45507;-80
2022/06/24 02:20:59;;;;;;;;;5.33;5.33;;;;;22.40;100.00;100374.72;4939355;28;45524;-80
2022/06/24 02:23:26;;;;;;;;;4.00;4.00;;;;;22.35;100.00;100374.75;4920438;28;45564;-72
2022/06/24 02:25:53;;;;;;;;;2.00;2.00;;;;;22.28;100.00;100372.31;4934819;28;45378;-73
2022/06/24 02:28:20;;;;;;;;;5.33;5.33;;;;;22.22;100.00;100365.13;4917668;28;45517;-73
2022/06/24 02:30:46;;;;;;;;;3.33;3.33;;;;;22.21;100.00;100369.84;4935606;28;45541;-79
2022/06/24 02:33:12;;;;;;;;;4.00;4.00;;;;;22.05;100.00;100351.59;4922992;28;47366;-79
2022/06/24 02:35:39;;;;;;;;;3.67;3.67;;;;;22.11;100.00;100371.94;4938975;28;45373;-78
2022/06/24 02:38:05;;;;;;;;;6.00;5.00;;;;;22.10;100.00;100378.66;4937462;28;45750;-78
2022/06/24 02:40:51;;;;;;;;;6.33;5.33;;;;;22.09;100.00;100402.13;4941968;28;45710;-78
2022/06/24 02:43:32;;;;;;;;;7.00;6.00;;;;;22.02;100.00;100397.72;4939347;28;45476;-78
2022/06/24 02:46:03;;;;;;;;;5.00;4.00;;;;;21.95;100.00;100374.06;4936248;28;47115;-79
2022/06/24 02:48:30;;;;;;;;;8.67;6.00;;;;;21.82;100.00;100358.81;4944298;28;46051;-79
2022/06/24 02:50:58;;;;;;;;;4.00;4.00;;;;;21.71;100.00;100352.50;4954007;28;45465;-80
2022/06/24 02:53:25;;;;;;;;;7.00;3.67;;;;;21.66;100.00;100372.06;4931029;28;46198;-78
2022/06/24 02:55:53;;;;;;;;;6.00;5.00;;;;;21.57;100.00;100365.47;4936496;28;45718;-78
2022/06/24 02:58:19;;;;;;;;;6.00;5.33;;;;;21.54;100.00;100380.81;4953778;28;45416;-79
2022/06/24 03:00:45;;;;;;;;;10.67;9.00;;;;;21.45;100.00;100368.59;4938488;28;45433;-78
2022/06/24 03:03:12;;;;;;;;;5.67;5.67;;;;;21.44;100.00;100372.53;4950212;28;47498;-78
2022/06/24 03:05:39;;;;;;;;;7.67;6.67;;;;;21.36;100.00;100367.56;4939391;28;46288;-72
2022/06/24 03:08:05;;;;;;;;;6.33;6.33;;;;;21.33;100.00;100367.03;4959284;28;45455;-72
2022/06/24 03:10:30;;;;;;;;;9.00;7.00;;;;;21.30;100.00;100373.19;4946431;28;45597;-73
2022/06/24 03:12:56;;;;;;;;;8.00;5.33;;;;;21.31;100.00;100380.41;4968090;28;45931;-72
2022/06/24 03:15:21;;;;;;;;;5.00;5.00;;;;;21.29;100.00;100381.84;4959803;28;45757;-75
2022/06/24 03:17:47;;;;;;;;;5.67;5.67;;;;;21.24;100.00;100365.13;4955560;28;45528;-74
2022/06/24 03:20:18;;;;;;;;;6.33;6.00;;;;;21.26;100.00;100366.53;4962819;28;45536;-75
2022/06/24 03:22:57;;;;;;;;;4.33;4.33;;;;;21.12;100.00;100352.41;4966946;28;45699;-82
2022/06/24 03:25:50;;;;;;;;;5.67;4.33;;;;;21.18;100.00;100361.53;4969635;28;46510;-79
2022/06/24 03:28:31;;;;;;;;;7.67;5.33;;;;;21.14;100.00;100355.72;4966716;28;45418;-76
2022/06/24 03:30:57;;;;;;;;;5.00;5.00;;;;;21.21;100.00;100360.13;4949790;28;45825;-77
2022/06/24 03:33:22;;;;;;;;;8.00;5.00;;;;;21.15;100.00;100351.81;4941578;28;45958;-79
2022/06/24 03:35:48;;;;;;;;;5.67;5.33;;;;;21.19;100.00;100367.97;4957227;28;45911;-78
2022/06/24 03:38:13;;;;;;;;;4.00;4.00;;;;;21.14;100.00;100355.72;4954236;28;45794;-79
2022/06/24 03:40:38;;;;;;;;;5.33;5.00;;;;;21.13;100.00;100359.63;4971323;28;45558;-79
2022/06/24 03:43:26;;;;;;;;;7.67;5.67;;;;;21.15;100.00;100362.97;4956705;28;45681;-79
2022/06/24 03:46:07;;;;;;;;;4.00;4.00;;;;;21.13;100.00;100367.16;4969220;28;46785;-78
2022/06/24 03:48:33;;;;;;;;;3.00;3.00;;;;;21.13;100.00;100364.38;4949906;28;45944;-77
2022/06/24 03:50:59;;;;;;;;;4.33;4.33;;;;;21.12;100.00;100362.69;4970393;28;45797;-78
2022/06/24 03:53:24;;;;;;;;;4.67;4.67;;;;;21.11;100.00;100358.28;4961576;28;45703;-73
2022/06/24 03:55:50;;;;;;;;;3.00;3.00;;;;;21.07;100.00;100359.97;4958900;28;45558;-72
2022/06/24 03:58:17;;;;;;;;;8.00;5.33;;;;;21.07;100.00;100362.75;4955900;28;45807;-72
2022/06/24 04:00:42;;;;;;;;;7.00;4.00;;;;;21.08;100.00;100364.44;4962221;28;45802;-72
2022/06/24 04:03:08;;;;;;;;;4.00;4.00;;;;;21.07;100.00;100357.19;4935284;28;45906;-72
2022/06/24 04:05:33;;;;;;;;;5.00;3.33;;;;;21.07;100.00;100354.38;4935101;28;46601;-79
2022/06/24 04:07:59;;;;;;;;;5.33;3.67;;;;;21.03;100.00;100342.97;4942550;28;45464;-73
2022/06/24 04:10:25;;;;;;;;;4.00;3.00;;;;;20.90;100.00;100322.16;4957140;28;45945;-73
2022/06/24 04:12:51;;;;;;;;;3.67;3.67;;;;;20.97;100.00;100344.97;4953115;28;45612;-72
2022/06/24 04:15:20;;;;;;;;;3.67;3.67;;;;;20.97;100.00;100364.50;4948951;28;45512;-73
2022/06/24 04:17:49;;;;;;;;;4.00;4.00;;;;;20.96;100.00;100365.59;4951395;28;45496;-73
2022/06/24 04:20:17;;;;;;;;;3.67;3.67;;;;;20.96;100.00;100362.81;4955411;28;45830;-73
2022/06/24 04:22:43;;;;;;;;;4.00;4.00;;;;;20.96;100.00;100356.41;4952975;28;46004;-74
2022/06/24 04:25:10;;;;;;;;;5.33;4.67;;;;;20.96;100.00;100356.41;4951140;28;45678;-73
2022/06/24 04:27:36;;;;;;;;;6.00;6.00;;;;;;;;4940474;28;45823;-74
2022/06/24 04:30:03;;;;;;;;;3.33;3.33;;;;;21.08;100.00;100381.16;4957655;28;45318;-77
2022/06/24 04:32:29;;;;;;;;;4.00;4.00;;;;;21.11;100.00;100369.41;4960668;28;45984;-78
2022/06/24 04:34:55;;;;;;;;;7.00;6.00;;;;;21.18;100.00;100372.69;4956574;28;45800;-78
2022/06/24 04:37:20;;;;;;;;;15.67;12.33;;;;;21.20;100.00;100359.31;4943231;28;45566;-77
2022/06/24 04:39:48;;;;;;;;;18.33;15.67;;;;;21.38;100.00;100370.88;4959535;28;45492;-73
2022/06/24 04:42:14;;;;;;;;;9.00;9.00;;;;;21.45;100.00;100365.81;4947484;28;45742;-75
2022/06/24 04:44:39;;;;;;;;;8.33;7.00;;;;;21.62;100.00;100371.84;4964770;28;46230;-71
2022/06/24 04:47:05;;;;;;;;;6.33;6.33;;;;;22.05;100.00;100368.34;4961251;28;45318;-72
2022/06/24 04:49:32;;;;;;;;;9.67;7.00;;;;;23.29;100.00;100350.84;4937622;28;45510;-73
2022/06/24 04:51:58;;;;;;;;;4.00;4.00;;;;;24.47;100.00;100325.47;4963489;28;47274;-73
2022/06/24 04:54:23;;;;;;;;;11.00;9.00;;;;;25.45;100.00;100312.03;4950407;28;45868;-74
2022/06/24 04:56:51;;;;;;;;;10.67;9.00;;;;;26.15;100.00;100318.88;4950819;28;45944;-79
2022/06/24 04:59:16;;;;;;;;;6.00;4.67;;;;;25.95;100.00;100308.19;4953324;28;45782;-79
2022/06/24 05:01:42;;;;;;;;;6.67;6.00;;;;;25.75;100.00;100310.41;4947614;28;45532;-74
2022/06/24 05:04:07;;;;;;;;;3.67;3.67;;;;;25.53;100.00;100314.06;4967767;28;45400;-74
2022/06/24 05:06:48;;;;;;;;;4.00;4.00;;;;;25.34;100.00;100312.28;4945076;28;45449;-80
2022/06/24 05:09:14;;;;;;;;;8.67;7.33;;;;;25.17;100.00;100306.53;4943607;28;45812;-79
2022/06/24 05:11:39;;;;;;;;;5.00;5.00;;;;;25.01;100.00;100308.84;4908540;28;46060;-77
2022/06/24 05:14:07;;;;;;;;;5.00;5.00;;;;;24.88;100.00;100310.59;4926450;28;47458;-75
2022/06/24 05:16:33;;;;;;;;;6.67;6.67;;;;;25.34;100.00;100315.09;4936745;28;45721;-74
2022/06/24 05:18:58;;;;;;;;;4.00;4.00;;;;;26.85;100.00;100307.81;4935587;28;45639;-73
2022/06/24 05:21:23;;;;;;;;;5.00;5.00;;;;;28.25;100.00;100296.31;4935551;28;45397;-73
2022/06/24 05:23:49;;;;;;;;;5.33;5.33;;;;;28.73;100.00;100288.56;4933033;28;45462;-74
2022/06/24 05:26:14;;;;;;;;;5.00;5.00;;;;;29.45;100.00;100291.28;4935712;28;45921;-74
2022/06/24 05:28:40;;;;;;;;;4.00;3.33;;;;;29.85;100.00;100293.53;4931950;28;45455;-74
2022/06/24 05:31:05;;;;;;;;;6.00;5.00;;;;;31.09;100.00;100288.59;4933066;28;45713;-79
2022/06/24 05:33:33;;;;;;;;;4.50;4.00;;;;;32.37;100.00;100280.28;4941045;28;45669;-81
2022/06/24 05:35:59;;;;;;;;;6.00;6.00;;;;;33.61;100.00;100291.88;4945035;28;45822;-78
2022/06/24 05:38:24;;;;;;;;;4.25;4.00;;;;;34.77;100.00;100277.56;4952997;28;45886;-79
2022/06/24 05:40:51;;;;;;;;;5.25;3.00;;;;;35.20;100.00;100274.44;4960293;28;45453;-80
2022/06/24 05:43:20;;;;;;;;;3.75;3.75;;;;;34.72;100.00;100285.59;4937712;28;47149;-79
2022/06/24 05:45:45;;;;;;;;;5.00;5.00;;;;;34.03;100.00;100278.00;4935423;28;45571;-72
2022/06/24 05:48:11;;;;;;;;;3.50;3.50;;;;;33.80;100.00;100290.22;4926895;28;45747;-77
2022/06/24 05:50:37;;;;;;;;;2.00;2.00;;;;;33.04;100.00;100276.50;4916532;28;45910;-77
2022/06/24 05:55:48;;;;;;;;;4.50;4.50;;;;;31.61;100.00;100286.84;4917455;28;45661;-78
2022/06/24 05:58:14;;;;;;;;;6.75;4.00;;;;;30.99;100.00;100294.78;4927446;28;45944;-79
2022/06/24 06:00:39;;;;;;;;;6.00;5.00;;;;;30.43;100.00;100299.09;4913415;28;45579;-78
2022/06/24 06:03:05;;;;;;;;;3.50;3.50;;;;;30.01;100.00;100302.13;4921065;28;45935;-78
2022/06/24 06:05:44;;;;;;;;;3.50;3.50;;;;;29.45;100.00;100308.22;4906228;28;45543;-80
2022/06/24 06:08:10;;;;;;;;;6.33;6.00;;;;;28.86;100.00;100309.22;5084656;23;46233;-74
2022/06/24 06:10:37;;;;;;;;;3.67;3.67;;;;;28.48;100.00;100308.09;4931937;28;45536;-73
2022/06/24 06:13:03;;;;;;;;;6.33;5.00;;;;;28.05;100.00;100297.06;4934516;28;45443;-76
2022/06/24 06:15:30;;;;;;;;;8.33;3.67;;;;;27.89;100.00;100314.50;4925995;28;45745;-76
2022/06/24 06:17:55;;;;;;;;;1.50;1.50;;;;;27.70;100.00;100320.53;4927368;28;46035;-73
2022/06/24 06:20:23;;;;;;;;;2.67;2.33;;;;;27.51;100.00;100312.44;4929660;28;45969;-77
2022/06/24 06:22:49;;;;;;;;;5.00;5.00;;;;;27.39;100.00;100303.84;4932282;28;46284;-76
2022/06/24 06:25:17;;;;;;;;;3.25;3.25;;;;;27.24;100.00;100307.97;4933771;28;45918;-77
2022/06/24 06:27:44;;;;;;;;;5.00;3.50;;;;;27.21;100.00;100319.91;4932135;28;45640;-77
2022/06/24 06:30:10;;;;;;;;;4.00;4.00;;;;;27.09;100.00;100312.13;4932637;28;45771;-75
2022/06/24 06:32:36;;;;;;;;;5.67;3.33;;;;;27.06;100.00;100324.88;4925823;28;46522;-77
2022/06/24 06:35:03;;;;;;;;;4.33;4.33;;;;;27.02;100.00;100323.06;4922956;28;45572;-77
2022/06/24 06:37:29;;;;;;;;;4.00;4.00;;;;;26.89;100.00;100314.44;4928353;28;45430;-77
2022/06/24 06:39:54;;;;;;;;;5.00;4.00;;;;;26.88;100.00;100324.03;4929244;28;45959;-76
2022/06/24 06:42:26;;;;;;;;;4.00;4.00;;;;;26.73;100.00;100321.72;4927893;28;46106;-78
2022/06/24 06:44:52;;;;;;;;;3.75;3.75;;;;;26.68;100.00;100330.31;4933592;28;45770;-77
2022/06/24 06:47:24;;;;;;;;;4.50;4.00;;;;;26.63;100.00;100333.25;4933691;28;45664;-78
2022/06/24 06:49:59;;;;;;;;;3.00;3.00;;;;;26.69;100.00;100337.59;4932780;28;45472;-80
2022/06/24 06:52:26;;;;;;;;;3.00;3.00;;;;;26.81;100.00;100326.50;4945722;28;46293;-77
2022/06/24 06:54:52;;;;;;;;;5.00;3.00;;;;;26.98;100.00;100331.34;4942656;28;45761;-79
2022/06/24 06:57:17;;;;;;;;;4.00;4.00;;;;;27.13;100.00;100330.84;4941959;28;46088;-78
2022/06/24 06:59:49;;;;;;;;;4.33;3.33;;;;;27.23;100.00;100329.69;4936763;28;46389;-77
2022/06/24 07:02:14;;;;;;;;;3.00;3.00;;;;;27.19;100.00;100323.06;4942246;28;46419;-78
2022/06/24 07:04:40;;;;;;;;;2.50;2.50;;;;;27.28;100.00;100326.69;4940794;28;45501;-78
2022/06/24 07:07:05;;;;;;;;;4.33;3.00;;;;;27.32;100.00;100332.47;4937635;28;45740;-75
2022/06/24 07:09:31;;;;;;;;;4.00;4.00;;;;;27.37;100.00;100334.34;4943582;28;45453;-87
2022/06/24 07:11:58;;;;;;;;;4.00;4.00;;;;;27.40;100.00;100316.78;4941898;28;45625;-74
2022/06/24 07:14:26;;;;;;;;;2.00;2.00;;;;;27.63;100.00;100323.84;4915137;28;45827;-74
2022/06/24 07:16:52;;;;;;;;;3.25;3.25;;;;;27.81;100.00;100332.25;4935596;28;45699;-77
2022/06/24 07:19:17;;;;;;;;;6.00;3.00;;;;;27.85;100.00;100327.63;4935707;28;45819;-81
2022/06/24 07:21:43;;;;;;;;;5.25;3.50;;;;;27.90;100.00;100324.59;4959840;22;46270;-70
2022/06/24 07:24:08;;;;;;;;;3.00;3.00;;;;;28.00;100.00;100324.25;4956244;28;45617;-74
2022/06/24 07:26:33;;;;;;;;;3.50;3.00;;;;;28.08;100.00;100319.75;4957504;28;45467;-76
2022/06/24 07:28:59;;;;;;;;;4.75;3.50;;;;;28.16;100.00;100312.44;4949231;28;45672;-76
2022/06/24 07:31:24;;;;;;;;;5.25;3.25;;;;;28.28;100.00;100309.72;4955750;28;46505;-75
2022/06/24 07:33:50;;;;;;;;;2.75;2.75;;;;;28.92;100.00;100307.81;4955557;28;46043;-77
2022/06/24 07:36:15;;;;;;;;;2.00;2.00;;;;;30.43;100.00;100301.91;4953440;28;45668;-75
2022/06/24 07:38:40;;;;;;;;;3.00;3.00;;;;;31.98;100.00;100299.97;4952073;28;45807;-76
2022/06/24 07:41:08;;;;;;;;;4.50;4.00;;;;;32.78;100.00;100291.38;4952085;28;46120;-72
2022/06/24 07:43:35;;;;;;;;;5.00;3.50;;;;;34.59;100.00;100300.06;4951360;28;45865;-73
2022/06/24 07:46:00;;;;;;;;;3.75;2.25;;;;;35.69;92.12;100301.06;4949724;28;45913;-74
2022/06/24 07:48:29;;;;;;;;;2.50;2.50;;;;;37.01;84.91;100302.50;4951293;28;45751;-73
2022/06/24 07:50:54;;;;;;;;;2.25;2.25;;;;;37.47;80.84;100298.22;4952773;28;45531;-71
2022/06/24 07:53:19;;;;;;;;;3.00;3.00;;;;;37.55;77.38;100289.25;4954250;28;45564;-72
2022/06/24 07:58:32;;;;;;;;;2.50;2.50;;;;;36.94;77.65;100306.19;4949475;28;45845;-74
2022/06/24 08:00:57;;;;;;;;;4.00;4.00;;;;;36.78;77.16;100297.09;4951414;28;45838;-72
2022/06/24 08:03:23;;;;;;;;;4.00;3.00;;;;;36.40;79.89;100303.78;4952558;28;45969;-71
2022/06/24 08:05:48;;;;;;;;;2.75;2.00;;;;;37.05;76.89;100306.22;4951647;28;45945;-72
2022/06/24 08:08:13;;;;;;;;;3.00;2.00;;;;;37.23;74.76;100300.56;4954673;28;45506;-72
2022/06/24 08:10:42;;;;;;;;;4.00;4.00;;;;;37.42;71.99;100294.53;4954529;28;46617;-72
2022/06/24 08:13:07;;;;;;;;;2.00;2.00;;;;;38.52;67.83;100299.13;4932317;28;45684;-73
2022/06/24 08:15:33;;;;;;;;;3.00;3.00;;;;;38.65;65.93;100291.75;4948371;28;46290;-74
2022/06/24 08:17:58;;;;;;;;;2.00;2.00;;;;;39.51;61.61;100296.31;4949740;28;45702;-75
2022/06/24 08:20:23;;;;;;;;;5.75;3.50;;;;;39.47;60.55;100298.41;4952730;28;45721;-74
2022/06/24 08:22:49;;;;;;;;;2.75;2.25;;;;;39.17;61.34;100299.81;4952654;28;45816;-74
2022/06/24 08:25:14;;;;;;;;;2.00;2.00;;;;;39.36;61.34;100299.28;4946175;28;45890;-73
2022/06/24 08:27:40;;;;;;;;;4.00;3.00;;;;;39.30;59.00;100303.84;4949569;28;46193;-73
2022/06/24 08:30:06;;;;;;;;;2.25;2.25;;;;;38.93;60.94;100307.25;4947893;28;46274;-73
2022/06/24 08:32:31;;;;;;;;;2.00;2.00;;;;;38.81;58.97;100288.47;4954535;28;45920;-76
2022/06/24 08:34:57;;;;;;;;;3.00;3.00;;;;;39.27;57.76;100306.72;4952694;28;46034;-75
2022/06/24 08:37:22;;;;;;;;;2.75;2.00;;;;;38.87;56.63;100297.44;4951106;28;45648;-73
2022/06/24 08:39:48;;;;;;;;;3.00;3.00;;;;;38.32;56.83;100296.72;4952774;28;45699;-74
2022/06/24 08:42:13;;;;;;;;;4.25;4.25;;;;;37.55;59.31;100291.31;4954722;28;45736;-73
2022/06/24 08:44:40;;;;;;;;;2.75;2.00;;;;;36.82;61.66;100286.53;4950732;28;45661;-73
2022/06/24 08:47:06;;;;;;;;;3.50;2.25;;;;;36.19;64.22;100290.13;4952361;28;45514;-73
2022/06/24 08:49:32;;;;;;;;;2.25;1.75;;;;;35.46;67.38;100279.22;4952212;28;45572;-76
2022/06/24 08:52:00;;;;;;;;;2.00;2.00;;;;;34.75;69.59;100290.53;4951267;28;45841;-73
2022/06/24 08:54:32;;;;;;;;;2.00;2.00;;;;;34.10;71.84;100286.66;4953869;28;45547;-73
2022/06/24 08:56:58;;;;;;;;;1.50;1.50;;;;;33.74;73.32;100286.03;4959514;28;45769;-72
2022/06/24 08:59:26;;;;;;;;;2.00;2.00;;;;;33.59;74.60;100282.91;4958276;28;46208;-72
2022/06/24 09:01:52;;;;;;;;;1.50;1.50;;;;;33.78;74.91;100272.72;4956316;28;45396;-74
2022/06/24 09:04:21;;;;;;;;;3.50;2.25;;;;;33.98;74.17;100272.63;4933319;28;45406;-74
2022/06/24 09:06:46;;;;;;;;;3.00;1.75;;;;;34.19;73.61;100272.16;4955083;28;45670;-78
2022/06/24 09:09:13;;;;;;;;;2.25;1.00;;;;;35.14;70.33;100267.44;4956050;28;46138;-74
2022/06/24 09:11:40;;;;;;;;;1.00;1.00;;;;;35.76;66.75;100266.09;4951142;28;46015;-70
2022/06/24 09:14:07;;;;;;;;;2.00;2.00;;;;;36.67;63.22;100257.81;4948831;28;45373;-70
2022/06/24 09:16:35;;;;;;;;;2.00;2.00;;;;;37.79;58.33;100261.13;4935804;28;45642;-68
2022/06/24 09:19:03;;;;;;;;;2.00;1.50;;;;;38.20;56.04;100257.84;4947901;28;45576;-69
2022/06/24 09:21:39;;;;;;;;;1.25;1.25;;;;;38.46;53.94;100253.72;4953241;28;45625;-65
2022/06/24 09:24:05;;;;;;;;;1.00;1.00;;;;;38.67;53.78;100247.13;4949734;28;45767;-64
2022/06/24 09:26:40;;;;;;;;;2.00;2.00;;;;;40.26;48.15;100246.16;4949937;28;45716;-64
2022/06/24 09:29:09;;;;;;;;;1.00;1.00;;;;;40.27;44.97;100238.34;4949679;28;46523;-64
2022/06/24 09:31:36;;;;;;;;;2.00;2.00;;;;;39.43;45.09;100240.22;4948753;28;46477;-66
2022/06/24 09:34:15;;;;;;;;;1.00;1.00;;;;;38.39;47.40;100238.59;4952656;28;45531;-65
2022/06/24 09:36:43;;;;;;;;;1.75;1.75;;;;;37.67;50.76;100239.41;4950518;28;45816;-64
2022/06/24 09:39:11;;;;;;;;;2.25;2.00;;;;;38.13;50.01;100241.47;4928370;28;48414;-64
2022/06/24 09:41:49;;;;;;;;;1.25;1.25;;;;;38.88;46.77;100238.84;4952905;28;45889;-63
2022/06/24 09:44:17;;;;;;;;;1.00;1.00;;;;;39.98;43.10;100235.72;4952514;28;45870;-64
2022/06/24 09:46:43;;;;;;;;;1.25;1.25;;;;;41.03;39.27;100227.63;4955386;28;45651;-65
2022/06/24 09:49:12;;;;;;;;;0.25;0.25;;;;;40.93;38.17;100223.66;4943759;28;46634;-66
2022/06/24 09:51:39;;;;;;;;;2.00;2.00;;;;;41.40;37.52;100214.38;4953012;28;45907;-64
2022/06/24 09:54:06;;;;;;;;;0.00;0.00;;;;;41.24;37.18;100215.00;4950262;28;45892;-65
2022/06/24 09:56:32;;;;;;;;;1.00;1.00;;;;;41.41;36.67;100223.81;4950235;28;45548;-65
2022/06/24 10:01:43;;;;;;;;;0.75;0.75;;;;;41.85;34.20;100212.47;4952542;28;45721;-66
2022/06/24 10:04:14;;;;;;;;;1.00;1.00;;;;;42.10;33.99;100214.88;4959601;28;45682;-70
2022/06/24 10:06:45;;;;;;;;;1.50;1.50;;;;;42.71;32.57;100222.38;4953677;28;45470;-70
2022/06/24 10:09:11;;;;;;;;;1.00;1.00;;;;;42.62;31.80;100219.28;4943067;28;47194;-70
2022/06/24 10:11:38;;;;;;;;;1.00;1.00;;;;;41.67;33.82;100218.50;4967303;28;45761;-70
2022/06/24 10:14:04;;;;;;;;;1.00;1.00;;;;;41.54;33.70;100219.09;4963235;28;45882;-69
2022/06/24 10:16:31;;;;;;;;;0.00;0.00;;;;;41.07;35.10;100216.91;4961783;28;45706;-71
2022/06/24 10:19:00;;;;;;;;;1.00;1.00;;;;;41.14;34.50;100215.16;4958652;28;45368;-70
2022/06/24 10:21:26;;;;;;;;;1.00;1.00;;;;;41.32;34.17;100217.81;4954958;28;45405;-69
2022/06/24 10:23:52;;;;;;;;;2.00;0.00;;;;;41.36;34.42;100215.69;4968931;28;45459;-65
2022/06/24 10:26:28;;;;;;;;;0.50;0.50;;;;;40.46;36.24;100209.00;4956164;28;45451;-64
2022/06/24 10:29:13;;;;;;;;;1.00;1.00;;;;;39.70;38.28;100215.47;4954685;28;45960;-66
2022/06/24 10:31:42;;;;;;;;;2.00;1.25;;;;;39.08;39.81;100221.97;4950777;28;45492;-70
2022/06/24 10:34:11;;;;;;;;;1.00;1.00;;;;;38.66;41.87;100216.84;4951636;28;46206;-67
2022/06/24 10:36:37;;;;;;;;;1.00;1.00;;;;;39.57;39.93;100216.38;4950015;28;45539;-71
2022/06/24 10:39:10;;;;;;;;;2.00;1.00;;;;;40.10;38.25;100206.50;4952874;28;46658;-71
2022/06/24 10:41:37;;;;;;;;;1.00;1.00;;;;;39.44;39.26;100211.13;4936637;28;45968;-71
2022/06/24 10:44:21;;;;;;;;;1.00;1.00;;;;;38.33;43.29;100204.63;4953112;28;45871;-70
2022/06/24 10:47:12;;;;;;;;;1.00;1.00;;;;;37.01;48.27;100197.59;4951757;28;45860;-71
2022/06/24 10:49:55;;;;;;;;;1.00;1.00;;;;;36.16;52.73;100193.84;4951091;28;46308;-71
2022/06/24 10:52:41;;;;;;;;;1.00;1.00;;;;;35.82;56.84;100184.66;4954137;28;45464;-71
2022/06/24 10:55:28;;;;;;;;;1.00;1.00;;;;;36.46;54.34;100197.75;4952503;28;45465;-72
2022/06/24 10:58:14;;;;;;;;;2.25;1.25;;;;;36.61;52.05;100190.88;4959569;28;45742;-73
2022/06/24 11:00:48;;;;;;;;;1.00;1.00;;;;;36.13;52.73;100188.13;4962447;28;45656;-71
2022/06/24 11:03:16;;;;;;;;;0.50;0.50;;;;;35.55;55.59;100193.34;4946466;28;45749;-72
2022/06/24 11:05:46;;;;;;;;;1.00;1.00;;;;;34.85;58.52;100190.16;4960558;28;46674;-70
2022/06/24 11:08:13;;;;;;;;;1.00;1.00;;;;;34.12;62.01;100194.00;4965355;28;45922;-72
2022/06/24 11:10:39;;;;;;;;;0.25;0.25;;;;;33.52;65.63;100200.31;4957471;28;46048;-70
2022/06/24 11:13:05;;;;;;;;;0.00;0.00;;;;;32.98;69.40;100204.13;4955162;28;45754;-70
2022/06/24 11:15:41;;;;;;;;;2.00;1.00;;;;;32.44;73.47;100202.97;4954797;28;45667;-71
2022/06/24 11:18:15;;;;;;;;;0.00;0.00;;;;;31.95;76.67;100213.59;4953147;28;46170;-70
2022/06/24 11:20:54;;;;;;;;;0.00;0.00;;;;;31.40;81.94;100209.72;4959365;28;47273;-71
2022/06/24 11:23:25;;;;;;;;;0.75;0.75;;;;;31.03;87.22;100212.75;4952338;28;45480;-70
2022/06/24 11:25:58;;;;;;;;;0.00;0.00;;;;;30.75;92.71;100214.38;4954583;28;45467;-71
2022/06/24 11:28:26;;;;;;;;;1.00;1.00;;;;;30.59;96.94;100213.47;4956847;28;45608;-72
2022/06/24 11:30:53;;;;;;;;;1.00;1.00;;;;;30.61;100.00;100205.44;4956416;28;45547;-71
2022/06/24 11:33:19;;;;;;;;;0.00;0.00;;;;;30.76;100.00;100207.50;4968857;28;45776;-74
2022/06/24 11:35:47;;;;;;;;;1.00;1.00;;;;;31.03;100.00;100202.22;4967845;28;45656;-73